Search flights

Paro Airport, Paro (VQPR)

Airport Weather & NOTAM's

METAR for:VQPR (Paro Intl, PA, BT)
Text:VQPR 160530Z VRB04KT 6000 FEW008 OVC060 21/18 Q1018
Conditions at:0530 UTC 16 Jun 2024
Temperature: 21.0°C ( 70°F)
Dewpoint: 18.0°C ( 64°F) [RH = 83%]
Pressure (altimeter):30.06 inches Hg (1018.0 mb)
Winds:variable direction winds at 5 MPH (4 knots; 2.1 m/s)
Visibility:4 sm (6 km)
Ceiling:6000 feet AGL
Clouds:few clouds at 800 feet AGL, overcast cloud deck at 6000 feet AGL

Live Departures & Arrivals

There are currently no arrivals or departures for this airport.

Departures History (last 12 months)

No departure history to display.

Arrivals History (last 12 months)

Flight No. Origin Aircraft Date
SIC0103 VNKT King Air 3... 2024-06-09 15:18:11
SIC0868 VIDP FenixA320... 2023-10-14 17:21:07
SIC1801 ZULS Black Squa... 2023-10-06 22:27:19
SIC0103 ZULS Black Squa... 2023-10-06 22:21:07

Runway Information (Airport elevation: 7,323ft)

Runway 15 Length 7,428ft Width 102ft Elevation 7,350ft Surface Turf/clay Heading 150
Runway 33 Length 7,428ft Width 102ft Elevation 7,350ft Surface Turf/clay Heading 330

Airport Frequencies

Type Tower Frequency 120.300 Mhz

Airport Navaids

Type NDB Ident PR Frequency 410 Khz
Type VOR Ident PRO Frequency 108400 Khz